createdAt,value
2018-11-14T00:01:53.560Z,14.80
2018-11-14T00:04:28.477Z,23.97
2018-11-14T00:07:03.110Z,32.53
2018-11-14T00:09:37.891Z,44.07
2018-11-14T00:12:13.141Z,35.77
2018-11-14T00:14:48.257Z,61.23
2018-11-14T00:17:23.062Z,110.07
2018-11-14T00:19:58.484Z,135.60
2018-11-14T00:22:34.520Z,73.70
2018-11-14T00:25:09.698Z,63.17
2018-11-14T00:27:45.056Z,37.80
2018-11-14T00:30:23.242Z,32.00
2018-11-14T00:32:58.696Z,44.13
2018-11-14T00:35:34.346Z,59.57
2018-11-14T00:38:11.588Z,23.70
2018-11-14T00:40:46.336Z,43.30
2018-11-14T00:43:21.043Z,37.07
2018-11-14T00:45:56.089Z,25.27
2018-11-14T00:48:30.859Z,31.50
2018-11-14T00:51:09.540Z,21.30
2018-11-14T00:53:46.083Z,27.33
2018-11-14T00:56:21.193Z,16.27
2018-11-14T00:58:56.128Z,27.03
2018-11-14T01:01:32.898Z,59.03
2018-11-14T01:04:08.016Z,41.57
2018-11-14T01:06:42.536Z,33.43
2018-11-14T01:09:17.389Z,34.37
2018-11-14T01:11:52.170Z,38.03
2018-11-14T01:14:27.777Z,32.23
2018-11-14T01:17:02.600Z,52.47
2018-11-14T01:19:38.831Z,34.00
2018-11-14T01:22:14.681Z,53.13
2018-11-14T01:24:49.464Z,27.63
2018-11-14T01:27:24.569Z,79.67
2018-11-14T01:30:00.227Z,58.70
2018-11-14T01:32:35.398Z,56.00
2018-11-14T01:35:11.070Z,72.43
2018-11-14T01:37:46.173Z,29.80
2018-11-14T01:40:22.979Z,61.10
2018-11-14T01:42:58.309Z,35.63
2018-11-14T01:45:33.309Z,58.57
2018-11-14T01:48:09.151Z,39.70
2018-11-14T01:50:43.960Z,40.80
2018-11-14T01:53:19.132Z,36.97
2018-11-14T01:55:55.046Z,55.70
2018-11-14T01:58:29.762Z,60.00
2018-11-14T02:01:04.679Z,42.43
2018-11-14T02:03:40.393Z,40.87
2018-11-14T02:06:15.447Z,46.87
2018-11-14T02:08:50.494Z,21.60
2018-11-14T02:11:25.512Z,39.67
2018-11-14T02:14:00.553Z,25.10
2018-11-14T02:16:35.510Z,33.63
2018-11-14T02:19:11.683Z,54.03
2018-11-14T02:21:48.825Z,41.07
2018-11-14T02:24:23.997Z,28.63
2018-11-14T02:26:59.134Z,38.50
2018-11-14T02:29:34.084Z,31.20
2018-11-14T02:32:10.817Z,38.50
2018-11-14T02:34:46.101Z,28.47
2018-11-14T02:37:20.918Z,25.03
2018-11-14T02:39:56.052Z,29.07
2018-11-14T02:42:30.797Z,27.77
2018-11-14T02:45:06.368Z,26.43
2018-11-14T02:47:41.229Z,47.27
2018-11-14T02:50:17.066Z,61.80
2018-11-14T02:52:52.000Z,39.37
2018-11-14T02:55:27.160Z,68.43
2018-11-14T02:58:01.972Z,44.07
2018-11-14T03:00:36.902Z,68.67
2018-11-14T03:03:12.629Z,95.53
2018-11-14T03:05:47.430Z,84.90
2018-11-14T03:08:22.729Z,84.40
2018-11-14T03:10:58.252Z,79.93
2018-11-14T03:13:33.478Z,124.40
2018-11-14T03:16:08.520Z,158.27
2018-11-14T03:18:43.559Z,110.10
2018-11-14T03:21:18.245Z,128.90
2018-11-14T03:23:53.160Z,157.00
2018-11-14T03:26:29.527Z,172.70
2018-11-14T03:29:05.286Z,257.73
2018-11-14T03:31:39.883Z,148.67
2018-11-14T03:34:14.942Z,156.80
2018-11-14T03:36:49.897Z,139.30
2018-11-14T03:39:25.436Z,124.20
2018-11-14T03:42:00.811Z,71.90
2018-11-14T03:44:35.634Z,49.03
2018-11-14T03:47:10.411Z,99.23
2018-11-14T03:49:45.521Z,123.47
2018-11-14T03:52:21.200Z,115.77
2018-11-14T03:54:55.924Z,114.60
2018-11-14T03:57:31.078Z,82.40
2018-11-14T04:00:09.508Z,53.33
2018-11-14T04:02:47.822Z,122.17
2018-11-14T04:05:23.120Z,52.30
2018-11-14T04:07:57.939Z,64.73
2018-11-14T04:10:38.327Z,84.40
2018-11-14T04:13:14.211Z,39.47
2018-11-14T04:15:49.310Z,73.03
2018-11-14T04:18:24.972Z,65.17
2018-11-14T04:20:59.165Z,68.87
2018-11-14T04:23:37.772Z,67.97
2018-11-14T04:26:13.864Z,77.90
2018-11-14T04:28:48.793Z,55.13
2018-11-14T04:31:23.552Z,54.93
2018-11-14T04:33:58.726Z,40.67
2018-11-14T04:36:33.761Z,41.73
2018-11-14T04:39:10.994Z,31.57
2018-11-14T04:41:46.505Z,80.90
2018-11-14T04:44:22.310Z,48.63
2018-11-14T04:46:57.199Z,58.57
2018-11-14T04:49:32.508Z,51.83
2018-11-14T04:52:07.531Z,50.07
2018-11-14T04:54:42.318Z,77.20
2018-11-14T04:57:17.402Z,54.10
2018-11-14T04:59:53.280Z,69.17
2018-11-14T05:02:28.076Z,72.03
2018-11-14T05:05:03.122Z,67.30
2018-11-14T05:07:38.142Z,64.30
2018-11-14T05:10:15.360Z,91.63
2018-11-14T05:12:50.556Z,67.40
2018-11-14T05:15:26.056Z,47.27
2018-11-14T05:18:00.678Z,71.90
2018-11-14T05:20:35.588Z,53.70
2018-11-14T05:23:13.138Z,30.60
2018-11-14T05:25:48.061Z,84.53
2018-11-14T05:28:22.704Z,53.07
2018-11-14T05:30:57.215Z,41.37
2018-11-14T05:33:32.262Z,50.73
2018-11-14T05:36:07.641Z,59.80
2018-11-14T05:38:42.267Z,33.87
2018-11-14T05:41:16.883Z,47.40
2018-11-14T05:43:51.483Z,42.67
2018-11-14T05:46:26.211Z,23.27
2018-11-14T05:49:00.788Z,41.63
2018-11-14T05:51:35.535Z,40.77
2018-11-14T05:54:10.172Z,36.97
2018-11-14T05:56:44.836Z,38.97
2018-11-14T05:59:22.263Z,32.47
2018-11-14T06:01:57.035Z,32.90
2018-11-14T06:04:31.712Z,33.03
2018-11-14T06:07:06.450Z,38.87
2018-11-14T06:09:40.966Z,28.30
2018-11-14T06:12:15.616Z,30.33
2018-11-14T06:14:50.186Z,41.20
2018-11-14T06:17:24.770Z,24.60
2018-11-14T06:20:00.305Z,22.90
2018-11-14T06:22:34.787Z,20.50
2018-11-14T06:25:18.410Z,27.10
2018-11-14T06:27:53.756Z,29.53
2018-11-14T06:30:28.110Z,39.97
2018-11-14T06:33:03.545Z,55.60
2018-11-14T06:35:37.811Z,66.10
2018-11-14T06:38:12.263Z,63.57
2018-11-14T06:40:46.598Z,49.57
2018-11-14T06:43:20.865Z,75.37
2018-11-14T06:45:55.222Z,80.70
2018-11-14T06:48:29.500Z,57.47
2018-11-14T06:51:03.830Z,52.63
2018-11-14T06:53:38.423Z,53.40
2018-11-14T06:56:12.689Z,49.13
2018-11-14T06:58:47.187Z,57.80
2018-11-14T07:01:21.656Z,93.27
2018-11-14T07:03:56.496Z,82.03
2018-11-14T07:06:30.884Z,60.43
2018-11-14T07:09:08.709Z,99.87
2018-11-14T07:11:43.114Z,55.70
2018-11-14T07:14:17.381Z,66.77
2018-11-14T07:16:51.844Z,51.63
2018-11-14T07:19:26.213Z,66.60
2018-11-14T07:22:00.518Z,63.70
2018-11-14T07:24:34.860Z,72.87
2018-11-14T07:27:09.185Z,55.93
2018-11-14T07:29:43.614Z,74.33
2018-11-14T07:32:18.081Z,66.80
2018-11-14T07:34:52.549Z,74.30
2018-11-14T07:37:26.963Z,92.80
2018-11-14T07:40:01.312Z,77.77
2018-11-14T07:42:35.865Z,69.10
2018-11-14T07:45:12.459Z,76.47
2018-11-14T07:47:46.946Z,121.13
2018-11-14T07:50:21.372Z,81.03
2018-11-14T07:52:55.774Z,130.63
2018-11-14T07:55:30.322Z,215.73
2018-11-14T07:58:04.781Z,160.47
2018-11-14T08:00:39.290Z,134.70
2018-11-14T08:03:13.934Z,113.13
2018-11-14T08:05:48.374Z,94.83
2018-11-14T08:08:22.859Z,178.00
2018-11-14T08:10:57.074Z,200.63
2018-11-14T08:13:32.561Z,191.23
2018-11-14T08:16:07.106Z,127.80
2018-11-14T08:18:41.578Z,95.93
2018-11-14T08:21:15.882Z,85.80
2018-11-14T08:26:22.469Z,122.60
2018-11-14T08:28:56.816Z,93.57
2018-11-14T08:31:31.489Z,45.63
2018-11-14T08:34:06.269Z,66.13
2018-11-14T08:36:42.234Z,46.27
2018-11-14T08:39:17.123Z,56.77
2018-11-14T08:41:51.542Z,58.00
2018-11-14T08:44:25.941Z,44.03
2018-11-14T08:47:00.624Z,66.47
2018-11-14T08:49:35.290Z,21.17
2018-11-14T08:52:10.052Z,23.37
2018-11-14T08:54:44.763Z,83.13
2018-11-14T08:57:19.222Z,31.53
2018-11-14T08:59:53.939Z,27.60
2018-11-14T09:02:28.442Z,19.20
2018-11-14T09:05:02.849Z,27.23
2018-11-14T09:07:37.933Z,19.97
2018-11-14T09:10:14.243Z,21.80
2018-11-14T09:12:48.891Z,20.67
2018-11-14T09:15:24.633Z,20.53
2018-11-14T09:17:59.402Z,16.13
2018-11-14T09:20:34.056Z,18.13
2018-11-14T09:23:09.040Z,18.77
2018-11-14T09:25:43.539Z,24.40
2018-11-14T09:28:18.110Z,28.07
2018-11-14T09:30:52.721Z,17.17
2018-11-14T09:33:27.533Z,12.90
2018-11-14T09:36:02.145Z,28.60
2018-11-14T09:38:37.036Z,27.27
2018-11-14T09:41:11.653Z,25.87
2018-11-14T09:43:46.457Z,20.50
2018-11-14T09:46:20.946Z,30.17
2018-11-14T09:48:55.520Z,22.20
2018-11-14T09:51:30.260Z,14.83
2018-11-14T09:54:04.937Z,23.30
2018-11-14T09:56:39.622Z,37.30
2018-11-14T09:59:14.320Z,25.57
2018-11-14T10:01:48.900Z,23.33
2018-11-14T10:04:23.427Z,20.57
2018-11-14T10:06:57.922Z,23.33
2018-11-14T10:09:32.773Z,23.50
2018-11-14T10:12:07.430Z,25.80
2018-11-14T10:14:41.879Z,26.30
2018-11-14T10:17:16.480Z,33.53
2018-11-14T10:19:51.095Z,11.97
2018-11-14T10:22:25.837Z,20.13
2018-11-14T10:25:01.308Z,27.37
2018-11-14T10:27:36.447Z,23.67
2018-11-14T10:30:14.202Z,15.00
2018-11-14T10:32:49.024Z,17.50
2018-11-14T10:35:23.758Z,16.73
2018-11-14T10:37:58.430Z,20.43
2018-11-14T10:40:32.958Z,21.67
2018-11-14T10:43:07.730Z,13.60
2018-11-14T10:45:42.050Z,22.37
2018-11-14T10:48:16.691Z,17.77
2018-11-14T10:50:51.216Z,14.23
2018-11-14T10:53:25.773Z,17.63
2018-11-14T10:56:01.626Z,15.27
2018-11-14T10:58:36.343Z,16.00
2018-11-14T11:01:16.284Z,15.07
2018-11-14T11:03:55.979Z,14.47
2018-11-14T11:06:35.638Z,14.33
2018-11-14T11:09:15.874Z,16.80
2018-11-14T11:11:55.756Z,16.83
2018-11-14T11:14:36.148Z,15.10
2018-11-14T11:17:16.269Z,13.73
2018-11-14T11:19:50.946Z,12.77
2018-11-14T11:22:25.476Z,14.90
2018-11-14T11:25:00.117Z,13.43
2018-11-14T11:27:34.762Z,11.83
2018-11-14T11:30:10.480Z,13.53
2018-11-14T11:32:45.049Z,13.77
2018-11-14T11:35:19.689Z,12.20
2018-11-14T11:37:54.553Z,12.43
2018-11-14T11:40:29.476Z,14.30
2018-11-14T11:43:05.686Z,12.70
2018-11-14T11:45:40.128Z,13.67
2018-11-14T11:48:14.843Z,14.27
2018-11-14T11:50:49.406Z,12.50
2018-11-14T11:53:24.216Z,13.47
2018-11-14T11:55:58.707Z,13.00
2018-11-14T11:58:33.272Z,13.17
2018-11-14T12:01:08.172Z,13.07
2018-11-14T12:03:42.954Z,11.87
2018-11-14T12:06:17.564Z,12.03
2018-11-14T12:08:52.109Z,14.90
2018-11-14T12:11:26.543Z,12.30
2018-11-14T12:14:01.121Z,13.60
2018-11-14T12:16:35.559Z,12.03
2018-11-14T12:19:10.540Z,13.40
2018-11-14T12:21:45.307Z,11.73
2018-11-14T12:24:19.910Z,10.53
2018-11-14T12:26:54.520Z,10.20
2018-11-14T12:29:29.003Z,10.83
2018-11-14T12:32:03.690Z,11.17
2018-11-14T12:34:38.430Z,10.87
2018-11-14T12:37:12.978Z,11.37
2018-11-14T12:39:47.509Z,15.40
2018-11-14T12:42:22.245Z,12.53
2018-11-14T12:44:58.887Z,11.27
2018-11-14T12:47:33.633Z,12.03
2018-11-14T12:50:09.136Z,13.07
2018-11-14T12:52:43.924Z,13.33
2018-11-14T12:55:19.055Z,12.00
2018-11-14T12:57:53.592Z,12.63
2018-11-14T13:00:28.213Z,11.37
2018-11-14T13:03:02.901Z,14.30
2018-11-14T13:05:37.413Z,15.40
2018-11-14T13:08:12.210Z,13.53
2018-11-14T13:10:46.772Z,11.10
2018-11-14T13:13:22.322Z,11.20
2018-11-14T13:15:57.048Z,11.67
2018-11-14T13:18:31.697Z,11.40
2018-11-14T13:21:07.063Z,10.60
2018-11-14T13:23:41.646Z,11.33
2018-11-14T13:26:16.173Z,6.63
2018-11-14T13:28:50.957Z,4.73
2018-11-14T13:31:25.739Z,2.77
2018-11-14T13:34:03.764Z,2.10
2018-11-14T13:36:38.349Z,2.80
2018-11-14T13:39:13.054Z,2.20
2018-11-14T13:41:47.611Z,2.73
2018-11-14T13:44:22.298Z,2.17
2018-11-14T13:46:56.715Z,2.87
2018-11-14T13:49:32.605Z,2.70
2018-11-14T13:52:07.043Z,2.97
2018-11-14T13:54:41.688Z,2.50
2018-11-14T13:57:16.170Z,3.73
2018-11-14T13:59:50.810Z,2.70
2018-11-14T14:02:25.794Z,2.80
2018-11-14T14:05:00.210Z,2.50
2018-11-14T14:07:35.035Z,2.83
2018-11-14T14:10:11.064Z,3.10
2018-11-14T14:12:49.670Z,4.80
2018-11-14T14:15:27.061Z,2.63
2018-11-14T14:18:01.652Z,2.50
2018-11-14T14:20:36.250Z,3.67
2018-11-14T14:23:11.321Z,3.20
2018-11-14T14:25:46.005Z,3.00
2018-11-14T14:28:20.749Z,4.17
2018-11-14T14:30:55.372Z,3.27
2018-11-14T14:33:29.753Z,3.57
2018-11-14T14:36:04.673Z,3.33
2018-11-14T14:38:39.051Z,3.53
2018-11-14T14:41:13.861Z,3.10
2018-11-14T14:43:48.261Z,3.20
2018-11-14T14:46:22.925Z,2.93
2018-11-14T14:48:57.478Z,5.13
2018-11-14T14:51:32.051Z,4.47
2018-11-14T14:54:06.754Z,3.70
2018-11-14T14:56:41.395Z,4.17
2018-11-14T14:59:15.833Z,6.30
2018-11-14T15:01:50.376Z,5.43
2018-11-14T15:04:25.056Z,4.60
2018-11-14T15:06:59.621Z,5.53
2018-11-14T15:09:36.223Z,5.00
2018-11-14T15:12:10.931Z,5.27
2018-11-14T15:14:45.478Z,5.70
2018-11-14T15:17:20.110Z,5.40
2018-11-14T15:19:54.601Z,6.10
2018-11-14T15:22:29.032Z,6.13
2018-11-14T15:25:03.754Z,5.97
2018-11-14T15:27:39.142Z,6.90
2018-11-14T15:30:19.577Z,6.50
2018-11-14T15:32:54.073Z,7.57
2018-11-14T15:35:28.509Z,7.40
2018-11-14T15:38:03.051Z,6.83
2018-11-14T15:40:38.849Z,7.57
2018-11-14T15:43:19.149Z,7.03
2018-11-14T15:45:53.771Z,7.57
2018-11-14T15:48:28.552Z,7.77
2018-11-14T15:51:03.024Z,7.90
2018-11-14T15:53:37.565Z,9.77
2018-11-14T15:56:12.088Z,8.20
2018-11-14T15:58:47.640Z,7.97
2018-11-14T16:01:22.110Z,8.80
2018-11-14T16:03:56.672Z,11.50
2018-11-14T16:06:31.129Z,9.73
2018-11-14T16:09:09.104Z,9.07
2018-11-14T16:11:43.783Z,10.33
2018-11-14T16:14:18.259Z,9.37
2018-11-14T16:16:52.825Z,11.80
2018-11-14T16:19:27.502Z,10.23
2018-11-14T16:22:02.050Z,10.60
2018-11-14T16:24:36.513Z,11.63
2018-11-14T16:27:11.213Z,11.07
2018-11-14T16:29:45.856Z,11.20
2018-11-14T16:32:20.413Z,10.77
2018-11-14T16:34:56.953Z,11.07
2018-11-14T16:37:31.954Z,12.13
2018-11-14T16:40:08.985Z,13.37
2018-11-14T16:42:43.724Z,15.00
2018-11-14T16:45:18.298Z,13.00
2018-11-14T16:47:52.747Z,13.60
2018-11-14T16:50:27.625Z,14.00
2018-11-14T16:53:02.145Z,14.43
2018-11-14T16:55:36.794Z,15.13
2018-11-14T16:58:11.669Z,15.57
2018-11-14T17:00:46.243Z,15.37
2018-11-14T17:03:21.068Z,13.50
2018-11-14T17:05:56.215Z,14.67
2018-11-14T17:08:30.756Z,17.87
2018-11-14T17:11:05.699Z,14.97
2018-11-14T17:13:40.375Z,16.03
2018-11-14T17:16:15.137Z,19.47
2018-11-14T17:18:49.783Z,17.13
2018-11-14T17:21:24.432Z,19.23
2018-11-14T17:23:59.172Z,20.60
2018-11-14T17:26:33.510Z,20.07
2018-11-14T17:29:08.415Z,19.57
2018-11-14T17:31:42.940Z,22.17
2018-11-14T17:34:17.681Z,21.93
2018-11-14T17:36:52.327Z,20.20
2018-11-14T17:39:26.710Z,20.17
2018-11-14T17:42:01.556Z,21.03
2018-11-14T17:44:36.305Z,21.63
2018-11-14T17:47:10.918Z,21.03
2018-11-14T17:49:45.633Z,21.90
2018-11-14T17:52:20.178Z,24.73
2018-11-14T17:54:54.796Z,20.70
2018-11-14T17:57:29.505Z,21.83
2018-11-14T18:00:04.708Z,22.53
2018-11-14T18:02:39.672Z,24.17
2018-11-14T18:05:15.836Z,23.10
2018-11-14T18:07:51.194Z,23.80
2018-11-14T18:10:26.997Z,22.27
2018-11-14T18:13:02.286Z,27.43
2018-11-14T18:15:36.820Z,25.07
2018-11-14T18:18:11.519Z,26.90
2018-11-14T18:20:46.190Z,26.40
2018-11-14T18:23:20.978Z,27.10
2018-11-14T18:25:55.543Z,27.60
2018-11-14T18:28:30.629Z,28.03
2018-11-14T18:31:05.194Z,26.67
2018-11-14T18:33:39.852Z,25.33
2018-11-14T18:36:16.457Z,24.87
2018-11-14T18:38:52.369Z,28.40
2018-11-14T18:41:27.408Z,27.63
2018-11-14T18:44:04.182Z,29.10
2018-11-14T18:46:39.165Z,28.93
2018-11-14T18:49:24.497Z,27.83
2018-11-14T18:52:00.202Z,29.47
2018-11-14T18:54:35.362Z,30.53
2018-11-14T18:57:10.482Z,27.63
2018-11-14T18:59:47.113Z,28.23
2018-11-14T19:02:21.836Z,28.80
2018-11-14T19:04:56.784Z,29.50
2018-11-14T19:07:34.223Z,30.67
2018-11-14T19:10:13.126Z,30.37
2018-11-14T19:12:48.616Z,26.43
2018-11-14T19:15:27.554Z,27.33
2018-11-14T19:18:03.402Z,29.70
2018-11-14T19:20:38.502Z,29.40
2018-11-14T19:23:13.843Z,28.93
2018-11-14T19:25:48.809Z,31.97
2018-11-14T19:28:25.694Z,34.73
2018-11-14T19:31:00.932Z,31.80
2018-11-14T19:33:35.877Z,31.20
2018-11-14T19:36:11.405Z,33.53
2018-11-14T19:38:47.308Z,36.57
2018-11-14T19:41:22.293Z,34.20
2018-11-14T19:43:57.124Z,35.40
2018-11-14T19:46:32.016Z,36.10
2018-11-14T19:49:06.853Z,36.40
2018-11-14T19:51:42.691Z,36.03
2018-11-14T19:54:17.934Z,33.50
2018-11-14T19:56:52.772Z,36.57
2018-11-14T19:59:28.657Z,31.30
2018-11-14T20:02:05.802Z,32.67
2018-11-14T20:04:40.420Z,37.03
2018-11-14T20:07:16.591Z,32.80
2018-11-14T20:09:52.754Z,29.57
2018-11-14T20:12:29.447Z,28.23
2018-11-14T20:15:05.824Z,29.23
2018-11-14T20:17:41.505Z,29.67
2018-11-14T20:20:23.892Z,27.20
2018-11-14T20:22:58.392Z,25.37
2018-11-14T20:25:34.289Z,31.30
2018-11-14T20:28:09.238Z,29.30
2018-11-14T20:30:48.390Z,25.57
2018-11-14T20:33:23.034Z,28.10
2018-11-14T20:35:59.457Z,28.93
2018-11-14T20:38:35.722Z,30.77
2018-11-14T20:41:11.719Z,26.30
2018-11-14T20:43:48.669Z,28.17
2018-11-14T20:46:25.595Z,26.07
2018-11-14T20:49:00.592Z,27.67
2018-11-14T20:51:35.575Z,28.63
2018-11-14T20:54:13.738Z,28.63
2018-11-14T20:56:48.459Z,31.40
2018-11-14T20:59:23.104Z,33.23
2018-11-14T21:01:58.047Z,29.87
2018-11-14T21:04:33.109Z,28.57
2018-11-14T21:07:13.912Z,25.37
2018-11-14T21:09:48.492Z,25.13
2018-11-14T21:12:23.508Z,29.50
2018-11-14T21:14:58.148Z,27.07
2018-11-14T21:17:32.649Z,23.53
2018-11-14T21:20:08.533Z,28.43
2018-11-14T21:22:43.687Z,26.07
2018-11-14T21:25:19.488Z,32.40
2018-11-14T21:27:58.979Z,31.47
2018-11-14T21:30:34.764Z,32.07
2018-11-14T21:33:09.950Z,32.73
2018-11-14T21:35:44.584Z,27.87
2018-11-14T21:38:19.393Z,29.93
2018-11-14T21:40:54.041Z,26.53
2018-11-14T21:43:30.221Z,24.20
2018-11-14T21:46:10.430Z,23.83
2018-11-14T21:48:45.982Z,25.47
2018-11-14T21:51:20.823Z,24.90
2018-11-14T21:54:02.278Z,30.63
2018-11-14T21:56:39.803Z,31.03
2018-11-14T21:59:14.977Z,33.17
2018-11-14T22:01:50.666Z,33.03
2018-11-14T22:04:33.501Z,34.77
2018-11-14T22:07:10.556Z,33.10
2018-11-14T22:09:45.447Z,33.20
2018-11-14T22:12:21.941Z,33.73
2018-11-14T22:14:59.958Z,32.00
2018-11-14T22:17:36.573Z,27.83
2018-11-14T22:20:14.021Z,28.33
2018-11-14T22:22:49.934Z,26.57
2018-11-14T22:25:26.672Z,26.90
2018-11-14T22:28:02.690Z,25.63
2018-11-14T22:30:38.090Z,27.10
2018-11-14T22:33:15.516Z,26.57
2018-11-14T22:35:50.396Z,31.73
2018-11-14T22:38:26.972Z,26.87
2018-11-14T22:41:03.263Z,24.13
2018-11-14T22:43:38.222Z,26.63
2018-11-14T22:46:12.914Z,28.03
2018-11-14T22:48:47.543Z,25.83
2018-11-14T22:51:22.643Z,24.87
2018-11-14T22:53:57.385Z,26.20
2018-11-14T22:56:32.695Z,24.00
2018-11-14T22:59:07.928Z,26.53
2018-11-14T23:01:42.876Z,24.20
2018-11-14T23:04:17.829Z,24.07
2018-11-14T23:06:53.525Z,27.43
2018-11-14T23:09:28.902Z,27.00
2018-11-14T23:12:03.990Z,26.03
2018-11-14T23:14:39.437Z,26.23
2018-11-14T23:17:15.088Z,29.33
2018-11-14T23:19:50.058Z,35.07
2018-11-14T23:22:24.755Z,28.67
2018-11-14T23:24:59.637Z,25.03
2018-11-14T23:27:34.303Z,23.70
2018-11-14T23:30:10.354Z,27.33
2018-11-14T23:32:46.221Z,29.17
2018-11-14T23:35:28.434Z,24.77
2018-11-14T23:38:05.748Z,28.10
2018-11-14T23:40:40.677Z,26.47
2018-11-14T23:43:15.416Z,26.90
2018-11-14T23:45:50.043Z,29.83
2018-11-14T23:48:25.788Z,26.80
2018-11-14T23:51:01.349Z,25.70
2018-11-14T23:53:37.322Z,24.53
2018-11-14T23:56:12.367Z,25.87
2018-11-14T23:58:46.956Z,22.07
